createdAt,value
2024-01-07T00:00:32.312Z,16.53
2024-01-07T00:02:58.945Z,16.51
2024-01-07T00:05:25.606Z,16.50
2024-01-07T00:07:52.955Z,16.48
2024-01-07T00:10:19.567Z,16.47
2024-01-07T00:12:46.188Z,16.46
2024-01-07T00:15:12.723Z,16.44
2024-01-07T00:17:39.357Z,16.43
2024-01-07T00:20:07.109Z,16.41
2024-01-07T00:22:33.740Z,16.39
2024-01-07T00:25:00.438Z,16.39
2024-01-07T00:27:27.049Z,16.38
2024-01-07T00:29:53.676Z,16.37
2024-01-07T00:32:20.239Z,16.36
2024-01-07T00:34:46.876Z,16.35
2024-01-07T00:37:13.577Z,16.33
2024-01-07T00:39:40.219Z,16.32
2024-01-07T00:42:06.858Z,16.30
2024-01-07T00:44:33.422Z,16.29
2024-01-07T00:47:00.002Z,16.27
2024-01-07T00:49:27.196Z,16.25
2024-01-07T00:51:53.835Z,16.24
2024-01-07T00:54:20.400Z,16.24
2024-01-07T00:56:47.022Z,16.22
2024-01-07T00:59:13.580Z,16.20
2024-01-07T01:01:40.302Z,16.18
2024-01-07T01:04:07.070Z,16.18
2024-01-07T01:06:33.750Z,16.17
2024-01-07T01:09:00.319Z,16.15
2024-01-07T01:11:26.902Z,16.15
2024-01-07T01:13:53.958Z,16.14
2024-01-07T01:16:23.570Z,16.12
2024-01-07T01:18:53.025Z,16.12
2024-01-07T01:21:19.627Z,16.11
2024-01-07T01:23:47.966Z,16.11
2024-01-07T01:26:14.649Z,16.17
2024-01-07T01:28:41.188Z,16.25
2024-01-07T01:31:07.859Z,16.33
2024-01-07T01:33:34.620Z,16.41
2024-01-07T01:36:05.731Z,16.48
2024-01-07T01:38:32.306Z,16.54
2024-01-07T01:40:58.878Z,16.63
2024-01-07T01:43:26.855Z,16.69
2024-01-07T01:45:54.632Z,16.74
2024-01-07T01:48:21.529Z,16.74
2024-01-07T01:50:49.189Z,16.73
2024-01-07T01:53:18.600Z,16.71
2024-01-07T01:55:45.211Z,16.72
2024-01-07T01:58:13.982Z,16.73
2024-01-07T02:00:41.860Z,16.73
2024-01-07T02:03:08.601Z,16.69
2024-01-07T02:05:35.297Z,16.64
2024-01-07T02:08:02.102Z,16.59
2024-01-07T02:10:35.218Z,16.54
2024-01-07T02:13:01.958Z,16.47
2024-01-07T02:15:28.568Z,16.42
2024-01-07T02:17:55.485Z,16.36
2024-01-07T02:20:22.192Z,16.29
2024-01-07T02:22:49.210Z,16.24
2024-01-07T02:25:15.808Z,16.18
2024-01-07T02:27:42.421Z,16.12
2024-01-07T02:30:09.433Z,16.08
2024-01-07T02:32:37.208Z,16.02
2024-01-07T02:35:04.050Z,15.96
2024-01-07T02:37:30.931Z,15.92
2024-01-07T02:40:01.396Z,15.88
2024-01-07T02:42:29.136Z,15.88
2024-01-07T02:44:55.713Z,15.94
2024-01-07T02:47:22.334Z,16.03
2024-01-07T02:49:48.923Z,16.15
2024-01-07T02:52:15.605Z,16.25
2024-01-07T02:54:42.267Z,16.36
2024-01-07T02:57:08.863Z,16.44
2024-01-07T02:59:36.097Z,16.53
2024-01-07T03:02:02.753Z,16.61
2024-01-07T03:04:29.457Z,16.68
2024-01-07T03:06:56.027Z,16.71
2024-01-07T03:09:22.600Z,16.70
2024-01-07T03:11:49.111Z,16.68
2024-01-07T03:14:18.024Z,16.68
2024-01-07T03:16:44.624Z,16.69
2024-01-07T03:19:11.496Z,16.70
2024-01-07T03:21:38.174Z,16.71
2024-01-07T03:24:04.971Z,16.68
2024-01-07T03:26:34.471Z,16.63
2024-01-07T03:29:04.298Z,16.59
2024-01-07T03:31:31.187Z,16.53
2024-01-07T03:33:58.543Z,16.48
2024-01-07T03:36:25.260Z,16.43
2024-01-07T03:38:51.930Z,16.37
2024-01-07T03:41:19.648Z,16.32
2024-01-07T03:43:47.602Z,16.26
2024-01-07T03:46:14.793Z,16.21
2024-01-07T03:48:42.396Z,16.15
2024-01-07T03:51:09.173Z,16.10
2024-01-07T03:53:35.757Z,16.06
2024-01-07T03:56:02.421Z,16.01
2024-01-07T03:58:29.014Z,15.95
2024-01-07T04:00:55.665Z,15.95
2024-01-07T04:03:22.307Z,15.98
2024-01-07T04:05:51.317Z,16.07
2024-01-07T04:08:17.899Z,16.17
2024-01-07T04:10:44.503Z,16.27
2024-01-07T04:13:11.262Z,16.38
2024-01-07T04:15:38.027Z,16.47
2024-01-07T04:18:05.917Z,16.54
2024-01-07T04:20:32.706Z,16.62
2024-01-07T04:22:59.473Z,16.69
2024-01-07T04:25:26.138Z,16.73
2024-01-07T04:27:52.949Z,16.74
2024-01-07T04:30:19.749Z,16.75
2024-01-07T04:32:46.648Z,16.73
2024-01-07T04:35:13.410Z,16.72
2024-01-07T04:37:40.006Z,16.71
2024-01-07T04:40:07.254Z,16.71
2024-01-07T04:42:33.921Z,16.70
2024-01-07T04:45:00.717Z,16.68
2024-01-07T04:47:31.780Z,16.66
2024-01-07T04:49:59.122Z,16.66
2024-01-07T04:52:26.029Z,16.62
2024-01-07T04:54:53.957Z,16.64
2024-01-07T04:57:20.902Z,16.63
2024-01-07T04:59:49.797Z,16.63
2024-01-07T05:02:16.578Z,16.65
2024-01-07T05:04:43.582Z,16.64
2024-01-07T05:07:10.367Z,16.58
2024-01-07T05:09:36.957Z,16.52
2024-01-07T05:12:03.796Z,16.53
2024-01-07T05:14:30.354Z,16.54
2024-01-07T05:16:57.091Z,16.59
2024-01-07T05:19:24.255Z,16.63
2024-01-07T05:21:50.986Z,16.69
2024-01-07T05:24:17.558Z,16.75
2024-01-07T05:26:45.535Z,16.79
2024-01-07T05:29:13.217Z,16.81
2024-01-07T05:31:41.187Z,16.80
2024-01-07T05:34:08.226Z,16.74
2024-01-07T05:36:35.151Z,16.73
2024-01-07T05:39:01.764Z,16.71
2024-01-07T05:41:28.349Z,16.70
2024-01-07T05:43:55.081Z,16.71
2024-01-07T05:46:21.667Z,16.69
2024-01-07T05:48:49.841Z,16.66
2024-01-07T05:51:17.233Z,16.63
2024-01-07T05:53:45.072Z,16.58
2024-01-07T05:56:11.637Z,16.52
2024-01-07T05:58:38.245Z,16.47
2024-01-07T06:01:05.051Z,16.41
2024-01-07T06:03:31.991Z,16.37
2024-01-07T06:05:59.563Z,16.29
2024-01-07T06:08:29.628Z,16.22
2024-01-07T06:10:56.241Z,16.20
2024-01-07T06:13:22.822Z,16.20
2024-01-07T06:15:49.482Z,16.20
2024-01-07T06:18:16.219Z,16.22
2024-01-07T06:20:42.857Z,16.32
2024-01-07T06:23:09.544Z,16.42
2024-01-07T06:25:36.075Z,16.51
2024-01-07T06:28:02.721Z,16.63
2024-01-07T06:30:29.393Z,16.72
2024-01-07T06:32:56.799Z,16.82
2024-01-07T06:35:23.394Z,16.87
2024-01-07T06:37:50.331Z,16.92
2024-01-07T06:40:17.080Z,16.95
2024-01-07T06:42:45.091Z,16.92
2024-01-07T06:45:11.968Z,16.85
2024-01-07T06:47:39.086Z,16.82
2024-01-07T06:50:06.861Z,16.81
2024-01-07T06:52:33.729Z,16.82
2024-01-07T06:55:00.419Z,16.81
2024-01-07T06:57:27.024Z,16.82
2024-01-07T06:59:54.016Z,16.81
2024-01-07T07:02:22.643Z,16.76
2024-01-07T07:04:49.657Z,16.71
2024-01-07T07:07:16.464Z,16.62
2024-01-07T07:09:43.081Z,16.56
2024-01-07T07:12:09.874Z,16.47
2024-01-07T07:14:36.388Z,16.40
2024-01-07T07:17:02.966Z,16.36
2024-01-07T07:19:29.846Z,16.39
2024-01-07T07:21:56.446Z,16.46
2024-01-07T07:24:23.418Z,16.51
2024-01-07T07:26:49.962Z,16.57
2024-01-07T07:29:16.532Z,16.57
2024-01-07T07:31:43.113Z,16.53
2024-01-07T07:34:10.652Z,16.51
2024-01-07T07:36:37.306Z,16.49
2024-01-07T07:39:03.928Z,16.50
2024-01-07T07:41:30.461Z,16.52
2024-01-07T07:43:57.091Z,16.49
2024-01-07T07:46:23.735Z,16.44
2024-01-07T07:48:50.455Z,16.38
2024-01-07T07:51:17.080Z,16.45
2024-01-07T07:53:43.632Z,16.58
2024-01-07T07:56:10.168Z,16.69
2024-01-07T07:58:36.714Z,16.82
2024-01-07T08:01:03.536Z,16.94
2024-01-07T08:03:30.437Z,17.06
2024-01-07T08:05:57.105Z,17.17
2024-01-07T08:08:23.704Z,17.27
2024-01-07T08:10:50.297Z,17.38
2024-01-07T08:13:17.087Z,17.49
2024-01-07T08:15:43.879Z,17.58
2024-01-07T08:18:10.581Z,17.66
2024-01-07T08:20:37.179Z,17.75
2024-01-07T08:23:03.955Z,17.82
2024-01-07T08:25:30.632Z,17.90
2024-01-07T08:27:57.390Z,17.95
2024-01-07T08:30:24.755Z,18.01
2024-01-07T08:32:51.463Z,18.06
2024-01-07T08:35:20.245Z,18.11
2024-01-07T08:37:47.466Z,18.15
2024-01-07T08:40:14.967Z,18.17
2024-01-07T08:42:42.248Z,18.20
2024-01-07T08:45:09.280Z,18.20
2024-01-07T08:47:40.876Z,18.18
2024-01-07T08:50:09.663Z,18.15
2024-01-07T08:52:36.617Z,18.12
2024-01-07T08:55:06.932Z,18.04
2024-01-07T08:57:34.232Z,17.91
2024-01-07T09:00:00.923Z,17.81
2024-01-07T09:02:27.622Z,17.70
2024-01-07T09:04:54.173Z,17.59
2024-01-07T09:07:20.730Z,17.51
2024-01-07T09:09:47.270Z,17.43
2024-01-07T09:12:13.887Z,17.38
2024-01-07T09:14:40.634Z,17.29
2024-01-07T09:17:07.214Z,17.24
2024-01-07T09:19:33.998Z,17.22
2024-01-07T09:22:00.777Z,17.21
2024-01-07T09:24:27.549Z,17.17
2024-01-07T09:26:54.184Z,17.13
2024-01-07T09:29:21.336Z,17.08
2024-01-07T09:31:48.068Z,17.09
2024-01-07T09:34:15.950Z,17.17
2024-01-07T09:36:42.656Z,17.27
2024-01-07T09:39:10.573Z,17.37
2024-01-07T09:41:37.348Z,17.45
2024-01-07T09:44:04.728Z,17.55
2024-01-07T09:46:33.301Z,17.63
2024-01-07T09:49:00.006Z,17.70
2024-01-07T09:51:30.226Z,17.77
2024-01-07T09:54:03.391Z,17.84
2024-01-07T09:56:40.482Z,17.90
2024-01-07T09:59:08.027Z,17.94
2024-01-07T10:01:36.851Z,17.99
2024-01-07T10:04:03.776Z,18.01
2024-01-07T10:06:30.431Z,18.03
2024-01-07T10:08:56.990Z,18.03
2024-01-07T10:11:23.888Z,18.02
2024-01-07T10:13:52.402Z,17.98
2024-01-07T10:16:19.101Z,17.93
2024-01-07T10:18:45.986Z,17.88
2024-01-07T10:21:12.673Z,17.79
2024-01-07T10:23:39.270Z,17.75
2024-01-07T10:26:12.234Z,17.74
2024-01-07T10:28:46.710Z,17.80
2024-01-07T10:31:13.550Z,17.88
2024-01-07T10:33:41.843Z,17.96
2024-01-07T10:36:08.757Z,18.06
2024-01-07T10:38:36.398Z,18.16
2024-01-07T10:41:06.028Z,18.28
2024-01-07T10:43:36.985Z,18.39
2024-01-07T10:46:04.656Z,18.49
2024-01-07T10:48:36.036Z,18.60
2024-01-07T10:51:03.814Z,18.70
2024-01-07T10:53:38.187Z,18.80
2024-01-07T10:56:06.086Z,18.88
2024-01-07T10:58:35.240Z,18.97
2024-01-07T11:01:05.019Z,19.08
2024-01-07T11:03:41.976Z,19.18
2024-01-07T11:06:21.323Z,19.28
2024-01-07T11:08:57.161Z,19.37
2024-01-07T11:11:28.579Z,19.47
2024-01-07T11:13:57.936Z,19.54
2024-01-07T11:16:46.168Z,19.63
2024-01-07T11:19:16.203Z,19.72
2024-01-07T11:21:42.934Z,19.78
2024-01-07T11:24:09.513Z,19.86
2024-01-07T11:26:36.074Z,19.93
2024-01-07T11:29:02.711Z,20.00
2024-01-07T11:31:50.395Z,20.03
2024-01-07T11:34:47.665Z,20.05
2024-01-07T11:37:14.883Z,20.06
2024-01-07T11:39:46.121Z,20.05
2024-01-07T11:42:13.500Z,20.05
2024-01-07T11:44:49.844Z,20.01
2024-01-07T11:47:20.380Z,20.00
2024-01-07T11:49:47.350Z,19.97
2024-01-07T11:52:14.626Z,19.93
2024-01-07T11:54:41.664Z,19.89
2024-01-07T11:57:09.172Z,19.86
2024-01-07T11:59:35.973Z,19.84
2024-01-07T12:02:05.513Z,19.80
2024-01-07T12:04:32.866Z,19.79
2024-01-07T12:06:59.780Z,19.76
2024-01-07T12:09:26.869Z,19.73
2024-01-07T12:11:54.090Z,19.69
2024-01-07T12:14:21.245Z,19.66
2024-01-07T12:16:47.958Z,19.61
2024-01-07T12:19:14.785Z,19.58
2024-01-07T12:21:41.551Z,19.55
2024-01-07T12:24:08.543Z,19.53
2024-01-07T12:26:35.161Z,19.51
2024-01-07T12:29:04.972Z,19.47
2024-01-07T12:31:33.087Z,19.43
2024-01-07T12:34:00.113Z,19.42
2024-01-07T12:36:27.383Z,19.43
2024-01-07T12:38:57.031Z,19.42
2024-01-07T12:41:26.874Z,19.42
2024-01-07T12:43:53.594Z,19.42
2024-01-07T12:46:20.347Z,19.41
2024-01-07T12:48:47.270Z,19.40
2024-01-07T12:51:14.132Z,19.39
2024-01-07T12:53:40.729Z,19.39
2024-01-07T12:56:07.589Z,19.37
2024-01-07T12:58:34.252Z,19.37
2024-01-07T13:01:01.133Z,19.34
2024-01-07T13:03:28.258Z,19.34
2024-01-07T13:05:55.028Z,19.34
2024-01-07T13:08:23.676Z,19.34
2024-01-07T13:10:50.691Z,19.32
2024-01-07T13:13:17.440Z,19.31
2024-01-07T13:15:44.671Z,19.30
2024-01-07T13:18:13.425Z,19.29
2024-01-07T13:20:43.391Z,19.27
2024-01-07T13:23:10.065Z,19.27
2024-01-07T13:25:36.677Z,19.28
2024-01-07T13:28:03.968Z,19.33
2024-01-07T13:30:30.733Z,19.41
2024-01-07T13:33:01.677Z,19.49
2024-01-07T13:35:29.683Z,19.59
2024-01-07T13:37:56.249Z,19.68
2024-01-07T13:40:22.881Z,19.76
2024-01-07T13:42:52.286Z,19.85
2024-01-07T13:45:21.766Z,19.93
2024-01-07T13:47:48.635Z,20.00
2024-01-07T13:50:15.546Z,20.05
2024-01-07T13:52:42.207Z,20.11
2024-01-07T13:55:12.369Z,20.14
2024-01-07T13:57:39.845Z,20.17
2024-01-07T14:00:10.145Z,20.17
2024-01-07T14:02:41.638Z,20.17
2024-01-07T14:05:10.072Z,20.17
2024-01-07T14:07:36.933Z,20.15
2024-01-07T14:10:04.823Z,20.09
2024-01-07T14:12:32.205Z,20.02
2024-01-07T14:15:00.070Z,19.93
2024-01-07T14:17:27.224Z,19.84
2024-01-07T14:19:54.308Z,19.71
2024-01-07T14:22:22.247Z,19.59
2024-01-07T14:24:49.786Z,19.47
2024-01-07T14:27:17.058Z,19.36
2024-01-07T14:29:44.504Z,19.25
2024-01-07T14:32:11.913Z,19.16
2024-01-07T14:34:42.785Z,19.08
2024-01-07T14:37:13.197Z,18.98
2024-01-07T14:39:40.420Z,18.92
2024-01-07T14:42:07.150Z,18.86
2024-01-07T14:44:41.162Z,18.83
2024-01-07T14:47:15.862Z,18.89
2024-01-07T14:49:42.833Z,18.96
2024-01-07T14:52:09.481Z,19.04
2024-01-07T14:54:38.285Z,19.16
2024-01-07T14:57:05.625Z,19.30
2024-01-07T14:59:32.289Z,19.44
2024-01-07T15:02:00.330Z,19.53
2024-01-07T15:04:27.294Z,19.62
2024-01-07T15:06:54.016Z,19.70
2024-01-07T15:09:22.403Z,19.77
2024-01-07T15:11:50.004Z,19.82
2024-01-07T15:14:16.762Z,19.85
2024-01-07T15:16:43.788Z,19.84
2024-01-07T15:19:10.482Z,19.77
2024-01-07T15:21:37.185Z,19.66
2024-01-07T15:24:04.014Z,19.59
2024-01-07T15:26:31.112Z,19.54
2024-01-07T15:28:59.017Z,19.47
2024-01-07T15:31:25.700Z,19.41
2024-01-07T15:33:52.388Z,19.34
2024-01-07T15:36:19.208Z,19.24
2024-01-07T15:38:45.781Z,19.15
2024-01-07T15:41:12.420Z,19.05
2024-01-07T15:43:39.166Z,18.94
2024-01-07T15:46:06.121Z,18.84
2024-01-07T15:48:32.803Z,18.73
2024-01-07T15:51:02.609Z,18.63
2024-01-07T15:53:33.101Z,18.54
2024-01-07T15:56:04.182Z,18.45
2024-01-07T15:58:34.697Z,18.39
2024-01-07T16:01:04.574Z,18.30
2024-01-07T16:03:32.430Z,18.24
2024-01-07T16:06:00.384Z,18.27
2024-01-07T16:08:29.280Z,18.32
2024-01-07T16:10:56.442Z,18.40
2024-01-07T16:13:23.115Z,18.48
2024-01-07T16:15:49.722Z,18.58
2024-01-07T16:18:17.631Z,18.70
2024-01-07T16:20:44.989Z,18.81
2024-01-07T16:23:12.319Z,18.89
2024-01-07T16:25:39.217Z,18.96
2024-01-07T16:28:08.097Z,19.02
2024-01-07T16:30:35.464Z,19.10
2024-01-07T16:33:03.264Z,19.17
2024-01-07T16:35:30.932Z,19.23
2024-01-07T16:37:57.546Z,19.28
2024-01-07T16:40:24.192Z,19.31
2024-01-07T16:42:50.993Z,19.29
2024-01-07T16:45:17.681Z,19.27
2024-01-07T16:47:44.262Z,19.26
2024-01-07T16:50:21.546Z,19.23
2024-01-07T16:52:51.305Z,19.20
2024-01-07T16:55:17.966Z,19.16
2024-01-07T16:57:44.709Z,19.12
2024-01-07T17:00:11.800Z,19.09
2024-01-07T17:02:38.390Z,19.07
2024-01-07T17:05:05.554Z,19.02
2024-01-07T17:07:32.260Z,18.97
2024-01-07T17:09:58.830Z,18.95
2024-01-07T17:12:25.402Z,18.89
2024-01-07T17:14:53.276Z,18.84
2024-01-07T17:17:25.679Z,18.77
2024-01-07T17:19:52.407Z,18.73
2024-01-07T17:22:19.063Z,18.62
2024-01-07T17:24:45.594Z,18.58
2024-01-07T17:27:12.214Z,18.52
2024-01-07T17:29:38.806Z,18.47
2024-01-07T17:32:05.949Z,18.43
2024-01-07T17:34:32.651Z,18.41
2024-01-07T17:37:00.430Z,18.53
2024-01-07T17:39:27.007Z,18.68
2024-01-07T17:41:53.597Z,18.83
2024-01-07T17:44:20.168Z,18.96
2024-01-07T17:46:46.787Z,19.08
2024-01-07T17:49:13.501Z,19.18
2024-01-07T17:51:44.893Z,19.26
2024-01-07T17:54:13.024Z,19.32
2024-01-07T17:56:39.650Z,19.31
2024-01-07T17:59:08.277Z,19.24
2024-01-07T18:01:34.896Z,19.19
2024-01-07T18:04:01.550Z,19.15
2024-01-07T18:06:28.174Z,19.10
2024-01-07T18:08:54.891Z,19.08
2024-01-07T18:11:21.722Z,19.05
2024-01-07T18:13:49.068Z,19.03
2024-01-07T18:16:15.797Z,18.99
2024-01-07T18:18:42.700Z,18.96
2024-01-07T18:21:09.825Z,18.91
2024-01-07T18:23:36.397Z,18.84
2024-01-07T18:26:03.005Z,18.78
2024-01-07T18:28:29.635Z,18.71
2024-01-07T18:30:56.354Z,18.62
2024-01-07T18:33:24.607Z,18.53
2024-01-07T18:35:51.535Z,18.43
2024-01-07T18:38:18.300Z,18.37
2024-01-07T18:40:45.047Z,18.30
2024-01-07T18:43:11.795Z,18.28
2024-01-07T18:45:38.511Z,18.34
2024-01-07T18:48:06.969Z,18.43
2024-01-07T18:50:33.945Z,18.53
2024-01-07T18:53:01.096Z,18.59
2024-01-07T18:55:27.840Z,18.67
2024-01-07T18:57:54.429Z,18.77
2024-01-07T19:00:21.115Z,18.83
2024-01-07T19:02:47.715Z,18.91
2024-01-07T19:05:14.574Z,19.01
2024-01-07T19:07:42.249Z,19.10
2024-01-07T19:10:10.374Z,19.19
2024-01-07T19:12:37.125Z,19.27
2024-01-07T19:15:04.464Z,19.31
2024-01-07T19:17:31.381Z,19.34
2024-01-07T19:19:58.445Z,19.37
2024-01-07T19:22:25.056Z,19.33
2024-01-07T19:24:51.670Z,19.30
2024-01-07T19:27:18.499Z,19.26
2024-01-07T19:29:45.135Z,19.22
2024-01-07T19:32:11.767Z,19.16
2024-01-07T19:34:39.152Z,19.10
2024-01-07T19:37:05.786Z,19.01
2024-01-07T19:39:34.652Z,18.93
2024-01-07T19:42:01.988Z,18.87
2024-01-07T19:44:28.857Z,18.81
2024-01-07T19:46:55.887Z,18.72
2024-01-07T19:49:22.519Z,18.68
2024-01-07T19:51:51.181Z,18.68
2024-01-07T19:54:20.287Z,18.79
2024-01-07T19:56:47.012Z,18.91
2024-01-07T19:59:13.767Z,19.02
2024-01-07T20:01:40.366Z,19.09
2024-01-07T20:04:06.991Z,19.13
2024-01-07T20:06:33.607Z,19.13
2024-01-07T20:09:00.203Z,19.10
2024-01-07T20:11:27.029Z,19.02
2024-01-07T20:13:53.909Z,18.88
2024-01-07T20:16:21.459Z,18.74
2024-01-07T20:18:52.835Z,18.64
2024-01-07T20:21:24.319Z,18.52
2024-01-07T20:23:56.306Z,18.40
2024-01-07T20:26:23.534Z,18.30
2024-01-07T20:28:54.639Z,18.20
2024-01-07T20:31:22.121Z,18.11
2024-01-07T20:33:49.829Z,17.98
2024-01-07T20:36:16.736Z,17.88
2024-01-07T20:38:44.391Z,17.80
2024-01-07T20:41:12.480Z,17.69
2024-01-07T20:43:39.451Z,17.61
2024-01-07T20:46:07.056Z,17.50
2024-01-07T20:48:38.754Z,17.41
2024-01-07T20:51:08.699Z,17.32
2024-01-07T20:53:36.537Z,17.22
2024-01-07T20:56:03.508Z,17.13
2024-01-07T20:58:31.204Z,17.02
2024-01-07T21:01:00.097Z,16.97
2024-01-07T21:03:27.181Z,16.88
2024-01-07T21:05:54.468Z,16.82
2024-01-07T21:08:21.599Z,16.73
2024-01-07T21:10:48.642Z,16.66
2024-01-07T21:13:16.239Z,16.58
2024-01-07T21:15:42.906Z,16.50
2024-01-07T21:18:09.749Z,16.44
2024-01-07T21:20:36.794Z,16.36
2024-01-07T21:23:04.786Z,16.32
2024-01-07T21:25:33.340Z,16.26
2024-01-07T21:28:00.001Z,16.20
2024-01-07T21:30:27.049Z,16.15
2024-01-07T21:32:53.890Z,16.12
2024-01-07T21:35:20.624Z,16.08
2024-01-07T21:37:47.412Z,16.06
2024-01-07T21:40:23.642Z,16.02
2024-01-07T21:42:51.790Z,15.98
2024-01-07T21:45:19.905Z,15.94
2024-01-07T21:47:46.595Z,15.91
2024-01-07T21:50:13.875Z,15.89
2024-01-07T21:52:41.119Z,15.87
2024-01-07T21:55:08.208Z,15.84
2024-01-07T21:57:34.862Z,15.83
2024-01-07T22:00:01.449Z,15.80
2024-01-07T22:02:28.203Z,15.80
2024-01-07T22:04:55.114Z,15.77
2024-01-07T22:07:22.155Z,15.76
2024-01-07T22:09:49.173Z,15.75
2024-01-07T22:12:16.027Z,15.75
2024-01-07T22:14:42.881Z,15.72
2024-01-07T22:17:10.178Z,15.71
2024-01-07T22:19:38.839Z,15.71
2024-01-07T22:22:06.070Z,15.70
2024-01-07T22:24:32.668Z,15.70
2024-01-07T22:26:59.281Z,15.69
2024-01-07T22:29:26.084Z,15.68
2024-01-07T22:31:52.963Z,15.68
2024-01-07T22:34:19.711Z,15.67
2024-01-07T22:36:46.435Z,15.66
2024-01-07T22:39:13.239Z,15.64
2024-01-07T22:41:43.896Z,15.62
2024-01-07T22:44:11.687Z,15.60
2024-01-07T22:46:45.828Z,15.58
2024-01-07T22:49:13.983Z,15.57
2024-01-07T22:51:44.928Z,15.56
2024-01-07T22:54:11.731Z,15.53
2024-01-07T22:56:46.191Z,15.49
2024-01-07T22:59:14.883Z,15.49
2024-01-07T23:01:41.968Z,15.46
2024-01-07T23:04:09.261Z,15.44
2024-01-07T23:06:39.398Z,15.41
2024-01-07T23:09:07.004Z,15.41
2024-01-07T23:11:34.108Z,15.39
2024-01-07T23:14:01.030Z,15.37
2024-01-07T23:16:27.731Z,15.34
2024-01-07T23:18:54.519Z,15.31
2024-01-07T23:21:21.271Z,15.29
2024-01-07T23:23:48.063Z,15.28
2024-01-07T23:26:14.847Z,15.28
2024-01-07T23:28:41.503Z,15.27
2024-01-07T23:31:11.177Z,15.25
2024-01-07T23:33:38.195Z,15.22
2024-01-07T23:36:08.059Z,15.20
2024-01-07T23:38:36.468Z,15.18
2024-01-07T23:41:04.815Z,15.18
2024-01-07T23:43:32.159Z,15.16
2024-01-07T23:45:58.736Z,15.14
2024-01-07T23:48:26.477Z,15.14
2024-01-07T23:50:53.204Z,15.12
2024-01-07T23:53:19.816Z,15.11
2024-01-07T23:55:46.468Z,15.09
2024-01-07T23:58:13.082Z,15.08
